Time;durP1;ratioP1;P1;durP2;ratioP2;P2;SDS_P1;SDS_P2;PMS_P1;PMS_P2;Temp;Humidity;BMP_temperature;BMP_pressure;BME280_temperature;BME280_humidity;BME280_pressure;Samples;Min_cycle;Max_cycle;Signal;HPM_P1;HPM_P2
2022/06/07 00:01:06;;;;;;;5.72;4.87;;;;;;;16.27;70.95;100671.42;1736758;82;21373;-73
2022/06/07 00:03:32;;;;;;;;;;;;;;;16.25;70.87;100664.95;1726823;80;20896;-73
2022/06/07 00:05:58;;;;;;;5.10;4.70;;;;;;;16.24;71.48;100665.86;1709468;83;20105;-73
2022/06/07 00:08:30;;;;;;;5.03;4.62;;;;;;;16.23;71.03;100669.38;1713263;83;21512;-72
2022/06/07 00:10:55;;;;;;;5.10;4.65;;;;;;;16.24;71.10;100665.86;1709260;83;20867;-73
2022/06/07 00:13:22;;;;;;;4.97;4.53;;;;;;;16.27;71.07;100672.27;1693354;83;20900;-73
2022/06/07 00:15:48;;;;;;;6.45;4.55;;;;;;;16.29;71.08;100666.54;1715358;83;21507;-72
2022/06/07 00:18:14;;;;;;;4.83;4.45;;;;;;;16.29;71.11;100664.38;1716394;83;20906;-73
2022/06/07 00:20:42;;;;;;;5.80;4.80;;;;;;;16.30;71.11;100670.84;1710394;83;21528;-73
2022/06/07 00:23:12;;;;;;;4.95;4.47;;;;;;;16.28;71.13;100669.20;1707500;83;20846;-73
2022/06/07 00:25:40;;;;;;;4.60;4.20;;;;;;;16.26;71.20;100665.34;1716139;83;20863;-73
2022/06/07 00:28:07;;;;;;;4.87;4.45;;;;;;;16.22;71.12;100663.77;1716076;83;20945;-73
2022/06/07 00:30:35;;;;;;;4.60;4.30;;;;;;;16.17;71.12;100665.70;1713847;83;20930;-73
2022/06/07 00:33:02;;;;;;;6.67;4.95;;;;;;;16.12;71.19;100670.24;1665684;84;20895;-72
2022/06/07 00:35:32;;;;;;;6.15;4.50;;;;;;;16.08;71.26;100671.30;1683355;84;20890;-72
2022/06/07 00:37:59;;;;;;;4.87;4.58;;;;;;;16.06;71.27;100670.05;1666682;84;21194;-72
2022/06/07 00:40:25;;;;;;;5.97;4.87;;;;;;;16.04;71.34;100673.63;1670022;84;21028;-73
2022/06/07 00:42:52;;;;;;;5.42;4.92;;;;;;;16.01;71.39;100675.89;1706520;83;20906;-73
2022/06/07 00:45:22;;;;;;;5.62;5.22;;;;;;;15.96;71.29;100676.52;1684567;84;20965;-72
2022/06/07 00:47:49;;;;;;;6.50;6.00;;;;;;;15.92;71.42;100672.77;1706323;84;21341;-72
2022/06/07 00:50:42;;;;;;;6.70;6.15;;;;;;;15.86;71.38;100679.06;1692897;84;21046;-72
2022/06/07 00:53:31;;;;;;;7.35;6.65;;;;;;;15.82;71.39;100684.00;1687899;84;20915;-72
2022/06/07 00:55:58;;;;;;;6.45;5.95;;;;;;;15.75;71.49;100682.06;1659849;85;20974;-72
2022/06/07 00:58:30;;;;;;;6.80;5.92;;;;;;;15.74;71.57;100677.75;1685813;84;20916;-73
2022/06/07 01:00:58;;;;;;;7.03;6.30;;;;;;;15.73;71.57;100679.97;1683855;84;20950;-72
2022/06/07 01:03:25;;;;;;;6.60;5.83;;;;;;;15.75;71.72;100678.15;1672128;84;20910;-72
2022/06/07 01:05:54;;;;;;;7.25;6.55;;;;;;;15.79;71.71;100674.98;1692836;84;20851;-73
2022/06/07 01:11:06;;;;;;;6.58;6.08;;;;;;;15.84;71.85;100673.91;1659748;84;20954;-73
2022/06/07 01:13:34;;;;;;;;;;;;;;;15.86;71.82;100665.58;1694737;84;20907;-73
2022/06/07 01:16:07;;;;;;;8.53;7.65;;;;;;;15.85;72.33;100670.39;1697612;83;20439;-73
2022/06/07 01:18:34;;;;;;;9.25;8.00;;;;;;;15.88;71.96;100664.21;1706467;84;20906;-72
2022/06/07 01:21:18;;;;;;;;;;;;;;;15.90;71.94;100667.61;1698028;83;20916;-72
2022/06/07 01:23:46;;;;;;;9.75;8.75;;;;;;;15.93;72.54;100670.11;1722509;82;158512;-72
2022/06/07 01:26:13;;;;;;;10.82;9.85;;;;;;;15.95;72.18;100669.59;1731583;82;20898;-72
2022/06/07 01:28:39;;;;;;;;;;;;;;;16.00;72.21;100666.82;1685821;84;20980;-72
2022/06/07 01:31:06;;;;;;;10.25;9.25;;;;;;;16.05;72.49;100662.28;1692121;84;20428;-72
2022/06/07 01:33:33;;;;;;;16.67;13.32;;;;;;;16.07;72.31;100671.75;1703423;83;27347;-72
2022/06/07 01:36:05;;;;;;;14.40;12.80;;;;;;;16.09;72.25;100658.66;1733038;82;25353;-73
2022/06/07 01:38:34;;;;;;;17.62;12.88;;;;;;;16.11;72.36;100666.81;1677332;83;20852;-73
2022/06/07 01:43:45;;;;;;;16.95;13.22;;;;;;;16.11;72.36;100669.88;1740191;81;20942;-74
2022/06/07 01:46:13;;;;;;;22.17;13.30;;;;;;;16.12;72.48;100668.48;1694735;84;20917;-74
2022/06/07 01:48:39;;;;;;;14.53;13.03;;;;;;;16.13;72.58;100664.97;1719214;82;23513;-74
2022/06/07 01:51:09;;;;;;;14.25;12.73;;;;;;;16.19;72.63;100670.41;1740730;81;21521;-74
2022/06/07 01:53:36;;;;;;;15.45;11.18;;;;;;;16.21;72.67;100669.44;1739437;82;21251;-74
2022/06/07 01:56:13;;;;;;;15.13;11.25;;;;;;;16.23;72.69;100669.38;1740431;81;20886;-74
2022/06/07 01:58:46;;;;;;;12.25;10.82;;;;;;;16.25;72.74;100664.10;1725186;83;20888;-74
2022/06/07 02:01:11;;;;;;;12.43;11.22;;;;;;;16.26;72.68;100662.74;1723280;82;20873;-74
2022/06/07 02:03:37;;;;;;;11.93;10.93;;;;;;;16.27;72.84;100657.92;1721838;83;21349;-74
2022/06/07 02:06:13;;;;;;;17.90;10.75;;;;;;;16.31;72.85;100659.95;1723795;83;21086;-74
2022/06/07 02:08:41;;;;;;;11.65;9.58;;;;;;;16.34;72.88;100658.08;1729938;82;22156;-74
2022/06/07 02:11:17;;;;;;;10.55;9.65;;;;;;;16.32;72.86;100656.44;1726413;81;21102;-74
2022/06/07 02:13:44;;;;;;;10.72;8.98;;;;;;;16.34;72.98;100658.08;1723551;82;21158;-74
2022/06/07 02:16:21;;;;;;;13.90;10.18;;;;;;;16.34;72.90;100658.08;1731875;81;21064;-74
2022/06/07 02:18:48;;;;;;;10.30;9.25;;;;;;;16.36;72.98;100643.20;1742443;81;21097;-74
2022/06/07 02:21:17;;;;;;;14.30;9.83;;;;;;;16.35;72.92;100640.66;1737084;81;21625;-74
2022/06/07 02:23:44;;;;;;;11.12;10.20;;;;;;;16.33;73.01;100644.63;1724221;83;21079;-74
2022/06/07 02:26:42;;;;;;;17.50;10.13;;;;;;;16.29;73.02;100644.36;1722864;83;20994;-74
2022/06/07 02:29:19;;;;;;;14.03;9.85;;;;;;;16.29;73.21;100644.81;1724402;83;21059;-74
2022/06/07 02:31:56;;;;;;;11.28;10.18;;;;;;;16.30;73.08;100643.91;1738861;82;21080;-74
2022/06/07 02:34:24;;;;;;;11.05;10.15;;;;;;;16.27;73.18;100644.02;1671718;83;21032;-74
2022/06/07 02:36:55;;;;;;;10.88;9.83;;;;;;;16.25;73.26;100641.47;1690579;82;21027;-74
2022/06/07 02:39:23;;;;;;;10.13;9.15;;;;;;;16.23;73.38;100645.90;1722383;82;21788;-74
2022/06/07 02:41:50;;;;;;;11.70;10.08;;;;;;;16.23;73.26;100644.59;1684104;83;21022;-74
2022/06/07 02:44:17;;;;;;;9.88;9.08;;;;;;;16.23;73.42;100640.68;1674099;85;21092;-74
2022/06/07 02:46:44;;;;;;;10.25;9.23;;;;;;;16.26;73.43;100643.63;1713269;83;21006;-74
2022/06/07 02:49:10;;;;;;;11.22;9.55;;;;;;;16.26;73.53;100644.48;1701222;83;21049;-74
2022/06/07 02:51:36;;;;;;;11.08;10.08;;;;;;;16.27;73.33;100646.63;1703629;82;20988;-74
2022/06/07 02:54:03;;;;;;;15.68;9.50;;;;;;;16.24;73.42;100646.30;1710667;83;21011;-74
2022/06/07 02:56:29;;;;;;;9.90;8.90;;;;;;;16.23;73.61;100648.05;1714139;83;21075;-74
2022/06/07 02:58:56;;;;;;;9.65;8.48;;;;;;;16.26;73.58;100648.84;1711630;83;20999;-74
2022/06/07 03:01:23;;;;;;;10.75;9.83;;;;;;;16.25;73.67;100651.91;1710514;83;21046;-74
2022/06/07 03:03:50;;;;;;;9.93;9.08;;;;;;;16.28;73.66;100649.63;1698364;83;20999;-74
2022/06/07 03:06:16;;;;;;;12.55;10.50;;;;;;;16.29;73.75;100648.27;1698540;83;21091;-74
2022/06/07 03:08:46;;;;;;;11.55;10.40;;;;;;;16.29;73.67;100653.48;1693324;83;21143;-74
2022/06/07 03:11:12;;;;;;;12.30;11.00;;;;;;;16.29;73.68;100652.64;1712566;83;20928;-74
2022/06/07 03:13:39;;;;;;;17.05;11.83;;;;;;;16.29;73.77;100657.86;1709028;83;21046;-74
2022/06/07 03:16:05;;;;;;;16.77;13.60;;;;;;;16.32;73.84;100659.05;1713590;83;20959;-73
2022/06/07 03:18:32;;;;;;;15.98;13.30;;;;;;;16.29;73.73;100657.41;1712125;83;21008;-73
2022/06/07 03:20:58;;;;;;;19.35;13.60;;;;;;;16.29;73.80;100660.02;1688272;82;21015;-73
2022/06/07 03:23:25;;;;;;;15.23;13.28;;;;;;;16.29;73.89;100664.38;1708225;83;21071;-73
2022/06/07 03:25:52;;;;;;;15.35;13.25;;;;;;;16.29;73.87;100670.45;1713860;83;21043;-74
2022/06/07 03:28:18;;;;;;;14.90;13.10;;;;;;;16.29;74.03;100670.45;1680386;83;21048;-74
2022/06/07 03:30:45;;;;;;;17.75;12.58;;;;;;;16.33;74.05;100672.03;1706268;83;601591;-74
2022/06/07 03:33:11;;;;;;;11.40;10.23;;;;;;;16.35;74.05;100673.28;1715464;83;20896;-74
2022/06/07 03:35:39;;;;;;;10.08;9.08;;;;;;;16.31;73.94;100675.61;1715228;83;20932;-74
2022/06/07 03:38:05;;;;;;;9.95;9.05;;;;;;;16.25;73.95;100674.09;1686282;83;21005;-74
2022/06/07 03:40:44;;;;;;;9.48;8.68;;;;;;;16.24;74.17;100672.39;1704304;83;20893;-74
2022/06/07 03:43:13;;;;;;;9.75;8.90;;;;;;;16.30;74.24;100671.30;1709053;83;20932;-74
2022/06/07 03:45:39;;;;;;;;;;;;;;;16.32;74.24;100670.79;1712884;83;20892;-74
2022/06/07 03:48:06;;;;;;;9.30;8.50;;;;;;;16.35;74.54;100671.52;1684472;83;20099;-74
2022/06/07 03:50:33;;;;;;;10.35;9.48;;;;;;;16.33;74.09;100672.03;1676114;83;20925;-74
2022/06/07 03:53:00;;;;;;;10.00;9.05;;;;;;;16.31;74.31;100675.16;1711119;83;20892;-74
2022/06/07 03:55:27;;;;;;;10.03;9.25;;;;;;;16.36;74.33;100671.92;1710682;83;20904;-74
2022/06/07 03:57:53;;;;;;;12.30;11.10;;;;;;;16.38;74.39;100673.16;1686956;83;21365;-75
2022/06/07 04:00:20;;;;;;;10.70;9.80;;;;;;;16.41;74.48;100680.42;1710230;83;20916;-75
2022/06/07 04:02:46;;;;;;;10.72;9.83;;;;;;;16.44;74.53;100680.30;1704544;83;20924;-75
2022/06/07 04:05:13;;;;;;;11.65;10.63;;;;;;;16.52;74.54;100680.00;1716030;82;20938;-75
2022/06/07 04:10:28;;;;;;;10.58;9.63;;;;;;;16.58;74.38;100679.76;1679231;85;21071;-75
2022/06/07 04:12:54;;;;;;;10.30;9.30;;;;;;;16.63;74.61;100680.42;1705156;83;21063;-75
2022/06/07 04:15:20;;;;;;;11.55;9.95;;;;;;;16.71;74.59;100680.13;1704297;84;21635;-75
2022/06/07 04:17:48;;;;;;;10.15;9.25;;;;;;;16.79;74.68;100683.28;1703471;83;20918;-75
2022/06/07 04:20:14;;;;;;;;;;;;;;;16.86;74.67;100684.27;1710588;83;21018;-76
2022/06/07 04:22:40;;;;;;;9.90;9.00;;;;;;;16.93;74.87;100686.64;1711101;83;20177;-75
2022/06/07 04:25:07;;;;;;;10.10;9.23;;;;;;;16.99;74.70;100683.77;1711260;83;21012;-75
2022/06/07 04:27:34;;;;;;;10.30;8.50;;;;;;;17.07;74.67;100681.23;1710995;83;21309;-75
2022/06/07 04:30:02;;;;;;;9.30;8.45;;;;;;;17.12;74.61;100681.89;1708197;83;21114;-75
2022/06/07 04:32:28;;;;;;;;;;;;;;;17.19;74.64;100684.61;1707131;82;21053;-75
2022/06/07 04:34:55;;;;;;;8.80;8.00;;;;;;;17.33;75.10;100675.34;1710808;83;20305;-75
2022/06/07 04:37:21;;;;;;;9.58;8.70;;;;;;;17.52;74.75;100674.94;1710725;82;21027;-75
2022/06/07 04:39:48;;;;;;;;;;;;;;;17.69;74.76;100678.97;1704726;83;21185;-75
2022/06/07 04:42:14;;;;;;;8.95;8.25;;;;;;;17.83;74.78;100679.21;1715242;82;20181;-75
2022/06/07 04:44:41;;;;;;;8.13;7.42;;;;;;;18.02;74.53;100679.69;1720664;82;21380;-76
2022/06/07 04:47:07;;;;;;;8.75;8.05;;;;;;;18.02;74.53;100679.69;1722041;82;21067;-76
2022/06/07 04:49:33;;;;;;;8.78;7.97;;;;;;;18.04;74.53;100680.47;1722221;82;21087;-77
2022/06/07 04:52:00;;;;;;;9.80;7.87;;;;;;;18.07;74.48;100679.02;1722159;82;21695;-77
2022/06/07 04:54:27;;;;;;;8.43;7.75;;;;;;;18.19;74.65;100673.22;1721038;82;25988;-75
2022/06/07 04:56:55;;;;;;;8.53;7.72;;;;;;;18.35;74.53;100677.25;1721699;82;20971;-75
2022/06/07 04:59:24;;;;;;;8.45;7.65;;;;;;;18.39;74.55;100674.42;1721436;83;21482;-76
2022/06/07 05:01:51;;;;;;;8.45;7.75;;;;;;;18.44;74.56;100674.20;1722141;83;21400;-75
2022/06/07 05:04:17;;;;;;;7.97;7.28;;;;;;;18.67;74.88;100677.91;1719603;82;21531;-76
2022/06/07 05:06:43;;;;;;;7.62;7.03;;;;;;;18.96;74.54;100686.09;1721892;82;22236;-76
2022/06/07 05:09:22;;;;;;;7.22;6.50;;;;;;;20.39;74.35;100681.15;1722188;82;21039;-76
2022/06/07 05:11:53;;;;;;;6.45;5.95;;;;;;;20.39;74.35;100681.15;1721275;83;21022;-76
2022/06/07 05:14:21;;;;;;;7.22;6.53;;;;;;;20.50;74.06;100685.34;1722117;83;21050;-76
2022/06/07 05:16:52;;;;;;;7.20;6.70;;;;;;;20.79;74.24;100675.81;1721611;82;21030;-76
2022/06/07 05:19:18;;;;;;;6.55;6.05;;;;;;;21.12;74.53;100683.03;1718175;83;21007;-76
2022/06/07 05:21:45;;;;;;;5.90;5.50;;;;;;;21.59;74.25;100676.73;1721025;81;21494;-76
2022/06/07 05:24:13;;;;;;;7.12;6.42;;;;;;;22.40;74.14;100683.03;1721978;82;21555;-76
2022/06/07 05:26:53;;;;;;;6.80;6.22;;;;;;;22.82;73.69;100681.23;1719697;83;20995;-76
2022/06/07 05:29:42;;;;;;;6.40;5.87;;;;;;;23.16;73.67;100678.96;1708517;83;21545;-76
2022/06/07 05:32:09;;;;;;;6.60;6.00;;;;;;;23.14;73.17;100679.06;1715561;82;21021;-76
2022/06/07 05:34:37;;;;;;;6.53;5.92;;;;;;;23.35;73.34;100679.41;1721641;82;21028;-76
2022/06/07 05:37:04;;;;;;;6.45;5.95;;;;;;;23.77;73.49;100686.17;1722023;82;21086;-76
2022/06/07 05:39:31;;;;;;;8.75;5.62;;;;;;;24.26;73.29;100691.95;1721693;81;21050;-76
2022/06/07 05:42:00;;;;;;;6.85;6.15;;;;;;;24.74;72.97;100684.87;1706816;83;21023;-76
2022/06/07 05:44:27;;;;;;;7.72;5.95;;;;;;;25.12;72.74;100680.69;1707307;83;21001;-76
2022/06/07 05:46:54;;;;;;;;;;;;;;;25.12;72.74;100680.69;1713509;83;21070;-76
2022/06/07 05:49:22;;;;;;;6.55;6.05;;;;;;;25.00;71.23;100692.20;1713207;82;20302;-76
2022/06/07 05:51:48;;;;;;;5.50;5.10;;;;;;;24.69;72.01;100688.33;1708890;83;21045;-76
2022/06/07 05:54:16;;;;;;;6.37;5.78;;;;;;;24.58;72.20;100694.41;1707359;82;21097;-76
2022/06/07 05:56:42;;;;;;;6.03;5.42;;;;;;;24.52;72.22;100700.63;1708668;83;21041;-76
2022/06/07 05:59:08;;;;;;;5.20;4.90;;;;;;;24.60;72.16;100706.20;1708131;83;21007;-76
2022/06/07 06:01:35;;;;;;;;;;;;;;;24.71;72.03;100717.68;1712772;83;20955;-76
2022/06/07 06:04:03;;;;;;;5.90;5.25;;;;;;;24.81;71.29;100722.30;1717984;82;20128;-76
2022/06/07 06:06:30;;;;;;;5.35;4.95;;;;;;;24.81;71.70;100717.00;1719239;82;20888;-76
2022/06/07 06:11:41;;;;;;;5.42;5.00;;;;;;;25.26;71.50;100708.77;1711509;83;21267;-76
2022/06/07 06:14:08;;;;;;;5.05;4.58;;;;;;;25.49;70.83;100706.50;1709642;83;20881;-76
2022/06/07 06:16:34;;;;;;;5.03;4.62;;;;;;;25.36;70.71;100696.03;1719488;83;21425;-76
2022/06/07 06:19:01;;;;;;;;;;;;;;;25.37;70.14;100700.85;1722268;83;20896;-76
2022/06/07 06:21:35;;;;;;;5.08;4.78;;;;;;;25.39;70.02;100700.25;1717224;82;20093;-76
2022/06/07 06:24:02;;;;;;;5.47;5.05;;;;;;;25.27;70.17;100697.22;1718271;82;20868;-76
2022/06/07 06:26:34;;;;;;;5.78;5.17;;;;;;;25.18;70.26;100701.88;1713931;83;20878;-76
2022/06/07 06:29:01;;;;;;;5.70;5.30;;;;;;;25.13;70.08;100698.73;1712970;83;21347;-76
2022/06/07 06:31:27;;;;;;;5.83;5.33;;;;;;;25.04;69.59;100706.89;1711755;83;20853;-76
2022/06/07 06:33:55;;;;;;;5.90;5.50;;;;;;;24.68;69.29;100709.97;1717211;83;21740;-76
2022/06/07 06:36:26;;;;;;;5.47;5.08;;;;;;;24.34;69.36;100723.49;1719530;83;21388;-76
2022/06/07 06:38:54;;;;;;;5.85;5.35;;;;;;;24.02;69.09;100720.45;1716018;82;20877;-76
2022/06/07 06:41:25;;;;;;;5.83;5.22;;;;;;;23.81;69.16;100726.41;1719312;82;20932;-76
2022/06/07 06:43:56;;;;;;;5.78;5.28;;;;;;;23.77;69.01;100729.74;1719598;83;21429;-76
2022/06/07 06:46:33;;;;;;;6.08;5.30;;;;;;;23.92;68.93;100727.33;1719388;83;21365;-76
2022/06/07 06:49:00;;;;;;;5.97;5.47;;;;;;;24.39;68.67;100727.97;1715250;83;21430;-76
2022/06/07 06:51:28;;;;;;;6.35;5.85;;;;;;;25.13;68.38;100724.72;1710546;83;21425;-76
2022/06/07 06:54:03;;;;;;;6.28;5.83;;;;;;;25.89;68.09;100721.52;1711456;82;21810;-76
2022/06/07 06:56:30;;;;;;;6.25;5.75;;;;;;;26.37;67.55;100726.06;1713442;83;21491;-76
2022/06/07 06:58:59;;;;;;;5.70;5.30;;;;;;;26.80;67.04;100726.54;1708057;83;20871;-76
2022/06/07 07:01:31;;;;;;;6.40;5.58;;;;;;;26.99;67.23;100726.74;1714013;83;20935;-76
2022/06/07 07:04:01;;;;;;;5.78;5.37;;;;;;;26.94;66.77;100726.25;1714327;82;21370;-76
2022/06/07 07:06:29;;;;;;;5.25;4.95;;;;;;;26.91;66.76;100715.88;1710951;83;21394;-76
2022/06/07 07:08:57;;;;;;;5.95;5.55;;;;;;;27.27;66.97;100717.77;1706690;83;21391;-76
2022/06/07 07:11:31;;;;;;;7.58;5.00;;;;;;;27.98;66.35;100716.92;1714261;82;21523;-76
2022/06/07 07:13:59;;;;;;;5.10;4.80;;;;;;;28.85;66.00;100718.45;1715583;83;21294;-76
2022/06/07 07:16:30;;;;;;;5.90;5.50;;;;;;;29.51;65.55;100713.21;1714350;83;20892;-76
2022/06/07 07:18:58;;;;;;;5.15;4.75;;;;;;;30.10;65.34;100708.52;1712154;83;21411;-76
2022/06/07 07:21:28;;;;;;;5.08;4.67;;;;;;;30.29;64.53;100715.89;1711016;82;21521;-76
2022/06/07 07:23:58;;;;;;;4.83;3.98;;;;;;;30.47;64.46;100717.25;1714715;82;20869;-76
2022/06/07 07:26:27;;;;;;;4.60;4.30;;;;;;;30.48;63.46;100712.76;1712050;83;20991;-76
2022/06/07 07:28:54;;;;;;;4.75;4.45;;;;;;;30.11;62.97;100715.52;1717372;83;20852;-76
2022/06/07 07:31:25;;;;;;;4.62;4.30;;;;;;;29.92;62.57;100713.26;1713285;83;21813;-76
2022/06/07 07:33:52;;;;;;;6.12;4.87;;;;;;;29.89;62.79;100710.89;1719664;83;21448;-76
2022/06/07 07:36:19;;;;;;;5.70;4.50;;;;;;;29.97;62.00;100707.48;1719132;83;21441;-76
2022/06/07 07:38:45;;;;;;;4.65;4.12;;;;;;;30.00;61.95;100713.89;1713489;83;20941;-76
2022/06/07 07:41:19;;;;;;;4.17;3.87;;;;;;;30.23;61.57;100710.31;1720203;82;20939;-76
2022/06/07 07:43:47;;;;;;;5.85;4.30;;;;;;;30.34;60.88;100702.10;1720411;83;21345;-76
2022/06/07 07:46:14;;;;;;;4.42;4.10;;;;;;;30.38;60.66;100711.48;1723198;83;20904;-76
2022/06/07 07:48:41;;;;;;;4.62;4.17;;;;;;;30.61;60.13;100718.60;1722839;81;21357;-76
2022/06/07 07:51:11;;;;;;;7.12;4.80;;;;;;;30.54;59.25;100718.34;1714094;83;20932;-77
2022/06/07 07:53:38;;;;;;;4.53;4.22;;;;;;;30.45;59.27;100715.73;1722516;82;20872;-77
2022/06/07 07:56:11;;;;;;;4.58;4.25;;;;;;;30.63;58.85;100717.12;1722931;83;20841;-77
2022/06/07 07:58:38;;;;;;;4.92;4.50;;;;;;;30.64;58.55;100724.14;1722861;83;20952;-77
2022/06/07 08:01:17;;;;;;;4.42;4.05;;;;;;;30.60;57.91;100714.25;1721463;82;20963;-77
2022/06/07 08:03:44;;;;;;;4.70;4.40;;;;;;;30.39;57.53;100718.99;1721678;83;20880;-77
2022/06/07 08:06:17;;;;;;;4.30;4.03;;;;;;;30.36;57.05;100721.47;1700229;83;22173;-77
2022/06/07 08:08:46;;;;;;;4.42;4.15;;;;;;;30.35;56.59;100710.94;1721431;82;21843;-77
2022/06/07 08:11:13;;;;;;;4.83;4.40;;;;;;;30.18;56.09;100725.92;1717600;82;21677;-77
2022/06/07 08:13:39;;;;;;;6.53;4.42;;;;;;;30.22;55.84;100726.80;1720844;83;21093;-77
2022/06/07 08:16:09;;;;;;;4.85;4.45;;;;;;;30.19;55.56;100728.44;1720644;83;20943;-77
2022/06/07 08:18:37;;;;;;;4.95;4.42;;;;;;;30.24;54.86;100725.33;1709819;82;21599;-77
2022/06/07 08:21:08;;;;;;;5.00;4.60;;;;;;;30.14;54.77;100724.56;1714002;83;21042;-77
2022/06/07 08:23:37;;;;;;;4.65;4.25;;;;;;;30.03;54.44;100715.42;1713246;83;21086;-77
2022/06/07 08:26:05;;;;;;;4.40;4.00;;;;;;;30.10;54.34;100720.02;1711595;82;20920;-77
2022/06/07 08:28:33;;;;;;;4.35;4.05;;;;;;;30.04;53.96;100711.28;1713149;83;21050;-77
2022/06/07 08:31:00;;;;;;;4.87;4.37;;;;;;;29.92;53.86;100710.59;1707773;83;20958;-77
2022/06/07 08:39:03;;;;;;;4.03;3.72;;;;;;;29.91;53.21;100707.58;1721875;82;21039;-77
2022/06/07 08:41:54;;;;;;;4.47;4.17;;;;;;;30.17;52.66;100702.90;1715967;83;21101;-77
2022/06/07 08:44:28;;;;;;;4.17;3.87;;;;;;;30.00;52.16;100701.89;1697715;82;20880;-77
2022/06/07 08:47:00;;;;;;;4.45;4.05;;;;;;;30.15;51.87;100703.57;1715847;81;21036;-77
2022/06/07 08:49:27;;;;;;;3.67;3.47;;;;;;;30.00;51.82;100693.05;1714762;82;21116;-77
2022/06/07 08:52:01;;;;;;;4.15;3.50;;;;;;;29.96;51.87;100694.64;1703811;83;21098;-77
2022/06/07 08:54:31;;;;;;;4.65;4.05;;;;;;;30.07;51.78;100690.14;1721753;82;20949;-77
2022/06/07 08:57:02;;;;;;;4.30;4.00;;;;;;;30.46;51.83;100682.71;1685296;82;21036;-77
2022/06/07 08:59:29;;;;;;;4.97;4.42;;;;;;;30.79;50.90;100678.53;1717423;82;21019;-77
2022/06/07 09:02:10;;;;;;;5.95;4.65;;;;;;;30.87;51.20;100680.78;1674995;83;20963;-77
2022/06/07 09:04:39;;;;;;;4.35;3.83;;;;;;;31.20;50.93;100680.55;1701714;82;21013;-77
2022/06/07 09:07:13;;;;;;;4.03;3.72;;;;;;;31.35;50.62;100674.13;1685659;84;20980;-77
2022/06/07 09:12:37;;;;;;;4.67;3.60;;;;;;;30.64;50.34;100679.59;1700372;82;367734;-76
2022/06/07 09:15:17;;;;;;;4.33;3.90;;;;;;;30.06;50.13;100671.96;1691891;84;20948;-76
2022/06/07 09:17:53;;;;;;;4.40;4.00;;;;;;;29.69;49.90;100671.12;1722310;83;20885;-76
2022/06/07 09:20:27;;;;;;;4.45;4.03;;;;;;;29.44;49.64;100667.30;1695970;82;446616;-76
2022/06/07 09:23:00;;;;;;;4.95;4.55;;;;;;;29.16;49.23;100661.86;1717305;82;20914;-76
2022/06/07 09:25:40;;;;;;;4.55;4.15;;;;;;;28.64;48.82;100658.67;1722075;82;20941;-76
2022/06/07 09:28:14;;;;;;;4.05;3.75;;;;;;;28.29;48.89;100659.70;1681848;84;20933;-76
2022/06/07 09:30:45;;;;;;;4.70;4.30;;;;;;;28.00;48.51;100649.84;1723099;83;20944;-76
2022/06/07 09:33:25;;;;;;;4.17;3.87;;;;;;;27.70;48.40;100647.21;1732028;82;20894;-76
2022/06/07 09:36:01;;;;;;;5.20;3.92;;;;;;;27.40;48.15;100656.50;1721570;83;20912;-75
2022/06/07 09:38:41;;;;;;;4.35;4.03;;;;;;;27.10;48.13;100649.32;1729077;82;21835;-75
2022/06/07 09:41:36;;;;;;;5.15;4.03;;;;;;;26.91;48.10;100648.21;1707530;82;21254;-75
2022/06/07 09:44:22;;;;;;;3.83;3.52;;;;;;;26.79;47.97;100645.73;1700111;83;20960;-75
2022/06/07 09:47:16;;;;;;;4.40;4.00;;;;;;;26.68;47.82;100642.65;1723238;81;20936;-75
2022/06/07 09:49:49;;;;;;;4.03;3.65;;;;;;;26.57;47.80;100640.88;1733522;82;20934;-75
2022/06/07 09:52:23;;;;;;;3.65;3.42;;;;;;;26.46;47.69;100637.45;1719720;82;20898;-75
2022/06/07 09:54:53;;;;;;;3.70;3.40;;;;;;;26.37;47.65;100646.52;1729206;82;20976;-75
2022/06/07 09:57:34;;;;;;;4.15;3.80;;;;;;;26.25;47.54;100646.16;1709836;82;20945;-75
2022/06/07 10:00:51;;;;;;;5.53;3.80;;;;;;;26.16;47.52;100642.92;1719495;83;20913;-75
2022/06/07 10:03:35;;;;;;;4.78;3.40;;;;;;;26.08;47.46;100641.38;1719530;82;21049;-75
2022/06/07 10:06:35;;;;;;;5.85;3.10;;;;;;;26.08;47.50;100631.25;1723042;82;21398;-75
2022/06/07 10:09:39;;;;;;;3.85;3.15;;;;;;;26.10;47.52;100622.21;1709368;82;21071;-75
2022/06/07 10:12:31;;;;;;;3.05;2.67;;;;;;;26.03;47.26;100614.39;1721756;83;21039;-75
2022/06/07 10:15:21;;;;;;;2.22;1.72;;;;;;;25.72;47.04;100618.67;1682225;84;21418;-75
2022/06/07 10:18:31;;;;;;;1.77;1.67;;;;;;;25.76;47.12;100612.66;1717887;82;21453;-75
2022/06/07 10:21:17;;;;;;;1.95;1.67;;;;;;;25.74;47.01;100611.45;1715606;82;21028;-75
2022/06/07 10:24:15;;;;;;;2.08;1.98;;;;;;;25.82;47.00;100618.31;1721675;82;21029;-75
2022/06/07 10:26:57;;;;;;;2.02;1.92;;;;;;;25.88;46.80;100613.84;1716222;82;21128;-75
2022/06/07 10:29:32;;;;;;;2.35;2.22;;;;;;;25.97;46.81;100614.92;1725026;82;21085;-76
2022/06/07 10:32:40;;;;;;;3.00;2.72;;;;;;;26.00;46.77;100615.48;1715813;82;21668;-75
2022/06/07 10:35:24;;;;;;;3.20;2.95;;;;;;;26.03;46.66;100613.06;1725654;82;21101;-75
2022/06/07 10:38:30;;;;;;;2.65;2.45;;;;;;;26.03;46.68;100613.06;1685492;84;21047;-75
2022/06/07 10:41:11;;;;;;;2.52;2.33;;;;;;;26.13;46.63;100610.52;1723332;82;21115;-75
2022/06/07 10:44:00;;;;;;;4.42;2.87;;;;;;;26.23;46.69;100600.38;1719921;83;21063;-75
2022/06/07 10:46:29;;;;;;;3.55;3.25;;;;;;;26.35;46.66;100593.26;1721207;82;21112;-75
2022/06/07 10:49:19;;;;;;;2.80;2.60;;;;;;;26.35;46.76;100594.58;1715906;82;20870;-75
2022/06/07 10:55:02;;;;;;;3.20;3.00;;;;;;;26.59;46.75;100587.22;1729776;82;21001;-75
2022/06/07 10:58:13;;;;;;;5.00;2.52;;;;;;;26.58;46.51;100584.70;1722741;82;20869;-76
2022/06/07 11:00:54;;;;;;;3.62;2.40;;;;;;;26.54;46.39;100581.45;1716745;83;20971;-75
2022/06/07 11:03:48;;;;;;;2.30;2.00;;;;;;;26.58;46.53;100570.11;1693146;82;20947;-75
2022/06/07 11:09:50;;;;;;;1.95;1.85;;;;;;;26.90;46.52;100566.91;1713517;82;20917;-75
2022/06/07 11:12:25;;;;;;;7.85;2.37;;;;;;;26.90;46.09;100567.41;1722952;81;21411;-75
2022/06/07 11:15:35;;;;;;;1.82;1.72;;;;;;;26.74;46.16;100567.86;1744174;81;20889;-75
2022/06/07 11:18:14;;;;;;;1.98;1.75;;;;;;;26.73;46.35;100570.64;1738157;80;20912;-75
2022/06/07 11:20:57;;;;;;;1.82;1.72;;;;;;;26.79;46.31;100572.29;1743313;81;20877;-75
2022/06/07 11:23:31;;;;;;;2.05;1.82;;;;;;;26.75;46.19;100574.84;1739933;81;21352;-75
2022/06/07 11:26:03;;;;;;;2.45;1.90;;;;;;;26.68;46.07;100575.84;1750555;81;21379;-75
2022/06/07 11:28:41;;;;;;;2.17;1.98;;;;;;;26.58;46.10;100580.23;1754341;80;20905;-75
2022/06/07 11:31:36;;;;;;;2.70;2.20;;;;;;;26.46;45.86;100580.44;1752128;80;20997;-75
2022/06/07 11:34:36;;;;;;;2.00;1.90;;;;;;;26.33;45.84;100579.28;1732324;81;20940;-75
2022/06/07 11:37:17;;;;;;;2.22;2.00;;;;;;;26.19;45.91;100579.55;1740610;80;20913;-75
2022/06/07 11:39:56;;;;;;;1.75;1.65;;;;;;;26.06;45.79;100587.64;1721318;82;20942;-75
2022/06/07 11:42:33;;;;;;;4.03;3.10;;;;;;;25.95;45.82;100594.33;1721920;81;21054;-75
2022/06/07 11:45:18;;;;;;;2.15;1.95;;;;;;;25.81;45.88;100602.05;1714370;82;21032;-75
2022/06/07 11:47:50;;;;;;;2.42;2.22;;;;;;;25.72;45.82;100598.81;1701871;83;21264;-75
2022/06/07 11:50:31;;;;;;;2.40;2.20;;;;;;;25.60;45.95;100602.39;1710386;82;21290;-75
2022/06/07 11:53:20;;;;;;;2.87;2.47;;;;;;;25.52;46.03;100605.64;1711680;82;21027;-75
2022/06/07 11:55:56;;;;;;;2.62;2.42;;;;;;;25.48;46.04;100604.20;1694576;82;21449;-75
2022/06/07 11:58:59;;;;;;;2.87;2.60;;;;;;;25.42;46.18;100600.73;1731595;81;20978;-75
2022/06/07 12:01:44;;;;;;;2.67;2.47;;;;;;;25.46;46.16;100600.02;1731224;82;21548;-74
2022/06/07 12:04:32;;;;;;;2.10;1.95;;;;;;;25.44;46.31;100584.25;1688012;81;21692;-75
2022/06/07 12:07:36;;;;;;;2.62;2.42;;;;;;;25.44;46.31;100584.25;1731677;82;20984;-75
2022/06/07 12:10:25;;;;;;;3.85;2.02;;;;;;;25.28;46.43;100567.40;1725890;82;21092;-75
2022/06/07 12:12:57;;;;;;;4.03;2.40;;;;;;;25.42;46.42;100584.01;1719931;82;21078;-75
2022/06/07 12:15:32;;;;;;;2.52;2.33;;;;;;;25.40;46.03;100581.48;1730867;82;21076;-75